Terminal Aerodrome Forecast
Issued by NWS Shreveport, LA

Home | Current Version | Previous Version | Text Only | Print | Product List | Glossary On
Versions: 1 2 3 4 5 6 7 8 9 10 11 12 13 14 15 16 17 18
000
FTUS44 KSHV 291300 AAA
TAFMLU
TAF AMD
KMLU 291359Z 2914/3012 04007KT 5SM BR OVC004
     FM291500 03004KT P6SM OVC007
     FM291900 02004KT P6SM OVC015
     FM300000 02004KT P6SM OVC025
     FM300600 01004KT P6SM BKN050=

USA.gov is the U.S. government's official web portal to all federal, state and local government web resources and services.